Ted Stevens Anchorage International Airport
PANC : now visible

Airfield :











YOU CAN JOIN US ON...

 
LOGIN :

Register | Disclaimer

   EN    FR    IT 

 









Legend :    VFR   Marginal VFR   IFR   Intensive IFR   Very Intensive IFR
Visi :
Ceiling :
>= 8 km
>= 3000ft
5 to 8 km
1000 to 3000 ft
1500m to 5 km
500 to 1000 ft
800 to 1500m
200 to 500 ft
< 800m
< 200 ft
Symbols :   Thunderstorms  Fog  Heavy snow  Heavy precipitations  Wind > 20 kt







- Airport Elevation : 152 ft
- IATA code : ANC


PANC - Ted Stevens Anchorage International

CURRENT METAR :
  • 200853Z 15009KT 10SM OVC043 19/12 A3003 RMK AO2 SLP167 T01940122 402440150 51023

EXPIRED METARs :
  • 200753Z 15011G18KT 10SM BKN065 BKN200 20/12 A3001 RMK AO2 SLP162 T02000117
  • 200653Z 15010KT 10SM FEW000 BKN060 BKN100 BKN200 21/12 A2998 RMK AO2 SLP152 T02060117

TAF PANC
Valid from the 20 at 06:00 until the 21 at 12:00 UTC


200525Z 2006/2112 15015KT P6SM SCT100 BKN200
FM200900 17008KT P6SM SCT045 BKN120
FM201600 20005KT 6SM FU SCT001 SCT045 BKN080
FM202000 VRB04KT P6SM SCT025 BKN050
FM210000 27005KT P6SM SCT030 BKN080
PAZA FIR / North America



MET'MAP, your aeronautical weather chart ! - Copyright ORBIFLY December 2007 - Disclaimer

ORBIFLY MET'MAP TEAM :

Programming & Development : Alexandra Zaïnal
Concept & Development : Baudouin d'Aumeries
Co-Development & Prog : Marc-Olivier Méhu
Technical & hardware support : Manuel Goepfert

Contact : metmap@orbifly.com




SOURCES & CREDITS :

   NOAA       Earth
Advisory